sensor_id;sensor_type;location;lat;lon;timestamp;temperature;humidity
19538;DHT22;9914;51.008;4.300;2024-02-21T00:01:59;11.10;99.90
19538;DHT22;9914;51.008;4.300;2024-02-21T00:04:25;11.20;99.90
19538;DHT22;9914;51.008;4.300;2024-02-21T00:06:51;11.20;99.90
19538;DHT22;9914;51.008;4.300;2024-02-21T00:09:19;11.20;99.90
19538;DHT22;9914;51.008;4.300;2024-02-21T00:11:45;11.10;99.90
19538;DHT22;9914;51.008;4.300;2024-02-21T00:14:11;11.10;99.90
19538;DHT22;9914;51.008;4.300;2024-02-21T00:16:37;11.10;99.90
19538;DHT22;9914;51.008;4.300;2024-02-21T00:19:03;11.10;99.90
19538;DHT22;9914;51.008;4.300;2024-02-21T00:21:29;11.10;99.90
19538;DHT22;9914;51.008;4.300;2024-02-21T00:23:54;11.00;99.90
19538;DHT22;9914;51.008;4.300;2024-02-21T00:26:20;11.00;99.90
19538;DHT22;9914;51.008;4.300;2024-02-21T00:28:46;10.90;99.90
19538;DHT22;9914;51.008;4.300;2024-02-21T00:31:11;10.90;99.90
19538;DHT22;9914;51.008;4.300;2024-02-21T00:33:37;10.90;99.90
19538;DHT22;9914;51.008;4.300;2024-02-21T00:36:03;10.90;99.90
19538;DHT22;9914;51.008;4.300;2024-02-21T00:38:29;10.80;99.90
19538;DHT22;9914;51.008;4.300;2024-02-21T00:40:54;10.80;99.90
19538;DHT22;9914;51.008;4.300;2024-02-21T00:43:20;10.80;99.90
19538;DHT22;9914;51.008;4.300;2024-02-21T00:45:49;10.70;99.90
19538;DHT22;9914;51.008;4.300;2024-02-21T00:48:14;10.70;99.90
19538;DHT22;9914;51.008;4.300;2024-02-21T00:50:40;10.70;99.90
19538;DHT22;9914;51.008;4.300;2024-02-21T00:53:06;10.70;99.90
19538;DHT22;9914;51.008;4.300;2024-02-21T00:55:31;10.60;99.90
19538;DHT22;9914;51.008;4.300;2024-02-21T00:57:57;10.60;99.90
19538;DHT22;9914;51.008;4.300;2024-02-21T01:00:23;10.60;99.90
19538;DHT22;9914;51.008;4.300;2024-02-21T01:02:48;10.70;99.90
19538;DHT22;9914;51.008;4.300;2024-02-21T01:05:14;10.70;99.90
19538;DHT22;9914;51.008;4.300;2024-02-21T01:07:39;10.80;99.90
19538;DHT22;9914;51.008;4.300;2024-02-21T01:10:06;10.80;99.90
19538;DHT22;9914;51.008;4.300;2024-02-21T01:12:31;10.80;99.90
19538;DHT22;9914;51.008;4.300;2024-02-21T01:14:57;10.80;99.90
19538;DHT22;9914;51.008;4.300;2024-02-21T01:17:23;10.80;99.90
19538;DHT22;9914;51.008;4.300;2024-02-21T01:19:48;10.70;99.90
19538;DHT22;9914;51.008;4.300;2024-02-21T01:22:15;10.70;99.90
19538;DHT22;9914;51.008;4.300;2024-02-21T01:24:41;10.70;99.90
19538;DHT22;9914;51.008;4.300;2024-02-21T01:27:07;10.60;99.90
19538;DHT22;9914;51.008;4.300;2024-02-21T01:29:33;10.50;99.90
19538;DHT22;9914;51.008;4.300;2024-02-21T01:31:59;10.40;99.90
19538;DHT22;9914;51.008;4.300;2024-02-21T01:34:25;10.30;99.90
19538;DHT22;9914;51.008;4.300;2024-02-21T01:36:51;10.20;99.90
19538;DHT22;9914;51.008;4.300;2024-02-21T01:39:17;10.20;99.90
19538;DHT22;9914;51.008;4.300;2024-02-21T01:41:43;10.10;99.90
19538;DHT22;9914;51.008;4.300;2024-02-21T01:44:08;10.10;99.90
19538;DHT22;9914;51.008;4.300;2024-02-21T01:46:35;10.00;99.90
19538;DHT22;9914;51.008;4.300;2024-02-21T01:49:00;9.90;99.90
19538;DHT22;9914;51.008;4.300;2024-02-21T01:51:27;9.80;99.90
19538;DHT22;9914;51.008;4.300;2024-02-21T01:53:53;9.90;99.90
19538;DHT22;9914;51.008;4.300;2024-02-21T01:56:20;9.90;99.90
19538;DHT22;9914;51.008;4.300;2024-02-21T01:58:48;9.90;99.90
19538;DHT22;9914;51.008;4.300;2024-02-21T02:01:14;9.90;99.90
19538;DHT22;9914;51.008;4.300;2024-02-21T02:03:40;9.90;99.90
19538;DHT22;9914;51.008;4.300;2024-02-21T02:06:06;10.00;99.90
19538;DHT22;9914;51.008;4.300;2024-02-21T02:08:34;10.10;99.90
19538;DHT22;9914;51.008;4.300;2024-02-21T02:11:00;10.10;99.90
19538;DHT22;9914;51.008;4.300;2024-02-21T02:13:26;10.20;99.90
19538;DHT22;9914;51.008;4.300;2024-02-21T02:15:52;10.20;99.90
19538;DHT22;9914;51.008;4.300;2024-02-21T02:18:19;10.30;99.90
19538;DHT22;9914;51.008;4.300;2024-02-21T02:20:45;10.40;99.90
19538;DHT22;9914;51.008;4.300;2024-02-21T02:23:17;10.40;99.90
19538;DHT22;9914;51.008;4.300;2024-02-21T02:25:42;10.40;99.90
19538;DHT22;9914;51.008;4.300;2024-02-21T02:28:09;10.40;99.90
19538;DHT22;9914;51.008;4.300;2024-02-21T02:30:35;10.40;99.90
19538;DHT22;9914;51.008;4.300;2024-02-21T02:33:04;10.40;99.90
19538;DHT22;9914;51.008;4.300;2024-02-21T02:35:31;10.40;99.90
19538;DHT22;9914;51.008;4.300;2024-02-21T02:37:57;10.50;99.90
19538;DHT22;9914;51.008;4.300;2024-02-21T02:40:23;10.50;99.90
19538;DHT22;9914;51.008;4.300;2024-02-21T02:42:49;10.30;99.90
19538;DHT22;9914;51.008;4.300;2024-02-21T02:45:15;10.30;99.90
19538;DHT22;9914;51.008;4.300;2024-02-21T02:47:41;10.20;99.90
19538;DHT22;9914;51.008;4.300;2024-02-21T02:50:07;10.30;99.90
19538;DHT22;9914;51.008;4.300;2024-02-21T02:52:33;10.40;99.90
19538;DHT22;9914;51.008;4.300;2024-02-21T02:54:59;10.40;99.90
19538;DHT22;9914;51.008;4.300;2024-02-21T02:57:24;10.40;99.90
19538;DHT22;9914;51.008;4.300;2024-02-21T02:59:51;10.50;99.90
19538;DHT22;9914;51.008;4.300;2024-02-21T03:02:17;10.40;99.90
19538;DHT22;9914;51.008;4.300;2024-02-21T03:04:43;10.50;99.90
19538;DHT22;9914;51.008;4.300;2024-02-21T03:07:09;10.50;99.90
19538;DHT22;9914;51.008;4.300;2024-02-21T03:09:37;10.50;99.90
19538;DHT22;9914;51.008;4.300;2024-02-21T03:12:03;10.50;99.90
19538;DHT22;9914;51.008;4.300;2024-02-21T03:14:29;10.40;99.90
19538;DHT22;9914;51.008;4.300;2024-02-21T03:16:55;10.30;99.90
19538;DHT22;9914;51.008;4.300;2024-02-21T03:19:21;10.20;99.90
19538;DHT22;9914;51.008;4.300;2024-02-21T03:21:48;10.20;99.90
19538;DHT22;9914;51.008;4.300;2024-02-21T03:24:15;10.20;99.90
19538;DHT22;9914;51.008;4.300;2024-02-21T03:26:41;10.10;99.90
19538;DHT22;9914;51.008;4.300;2024-02-21T03:29:06;10.10;99.90
19538;DHT22;9914;51.008;4.300;2024-02-21T03:31:32;10.20;99.90
19538;DHT22;9914;51.008;4.300;2024-02-21T03:33:58;10.20;99.90
19538;DHT22;9914;51.008;4.300;2024-02-21T03:36:23;10.20;99.90
19538;DHT22;9914;51.008;4.300;2024-02-21T03:38:49;10.10;99.90
19538;DHT22;9914;51.008;4.300;2024-02-21T03:41:15;10.10;99.90
19538;DHT22;9914;51.008;4.300;2024-02-21T03:43:40;10.10;99.90
19538;DHT22;9914;51.008;4.300;2024-02-21T03:46:06;10.10;99.90
19538;DHT22;9914;51.008;4.300;2024-02-21T03:48:32;10.20;99.90
19538;DHT22;9914;51.008;4.300;2024-02-21T03:50:58;10.10;99.90
19538;DHT22;9914;51.008;4.300;2024-02-21T03:53:24;10.10;99.90
19538;DHT22;9914;51.008;4.300;2024-02-21T03:55:49;10.10;99.90
19538;DHT22;9914;51.008;4.300;2024-02-21T03:58:15;10.10;99.90
19538;DHT22;9914;51.008;4.300;2024-02-21T04:00:41;10.10;99.90
19538;DHT22;9914;51.008;4.300;2024-02-21T04:03:06;10.10;99.90
19538;DHT22;9914;51.008;4.300;2024-02-21T04:05:32;10.00;99.90
19538;DHT22;9914;51.008;4.300;2024-02-21T04:07:58;9.90;99.90
19538;DHT22;9914;51.008;4.300;2024-02-21T04:10:24;9.80;99.90
19538;DHT22;9914;51.008;4.300;2024-02-21T04:12:50;9.80;99.90
19538;DHT22;9914;51.008;4.300;2024-02-21T04:15:16;9.80;99.90
19538;DHT22;9914;51.008;4.300;2024-02-21T04:17:42;9.80;99.90
19538;DHT22;9914;51.008;4.300;2024-02-21T04:20:14;9.90;99.90
19538;DHT22;9914;51.008;4.300;2024-02-21T04:22:42;9.90;99.90
19538;DHT22;9914;51.008;4.300;2024-02-21T04:25:08;9.90;99.90
19538;DHT22;9914;51.008;4.300;2024-02-21T04:27:33;10.00;99.90
19538;DHT22;9914;51.008;4.300;2024-02-21T04:29:59;10.00;99.90
19538;DHT22;9914;51.008;4.300;2024-02-21T04:32:25;10.00;99.90
19538;DHT22;9914;51.008;4.300;2024-02-21T04:34:53;10.00;99.90
19538;DHT22;9914;51.008;4.300;2024-02-21T04:37:18;10.00;99.90
19538;DHT22;9914;51.008;4.300;2024-02-21T04:39:44;10.00;99.90
19538;DHT22;9914;51.008;4.300;2024-02-21T04:42:10;10.10;99.90
19538;DHT22;9914;51.008;4.300;2024-02-21T04:44:36;10.00;99.90
19538;DHT22;9914;51.008;4.300;2024-02-21T04:47:02;10.00;99.90
19538;DHT22;9914;51.008;4.300;2024-02-21T04:49:29;10.00;99.90
19538;DHT22;9914;51.008;4.300;2024-02-21T04:51:54;10.10;99.90
19538;DHT22;9914;51.008;4.300;2024-02-21T04:54:20;10.10;99.90
19538;DHT22;9914;51.008;4.300;2024-02-21T04:56:46;10.00;99.90
19538;DHT22;9914;51.008;4.300;2024-02-21T04:59:11;10.00;99.90
19538;DHT22;9914;51.008;4.300;2024-02-21T05:01:37;10.00;99.90
19538;DHT22;9914;51.008;4.300;2024-02-21T05:04:02;9.90;99.90
19538;DHT22;9914;51.008;4.300;2024-02-21T05:06:28;9.90;99.90
19538;DHT22;9914;51.008;4.300;2024-02-21T05:08:54;9.90;99.90
19538;DHT22;9914;51.008;4.300;2024-02-21T05:11:21;9.90;99.90
19538;DHT22;9914;51.008;4.300;2024-02-21T05:13:47;9.90;99.90
19538;DHT22;9914;51.008;4.300;2024-02-21T05:16:12;9.90;99.90
19538;DHT22;9914;51.008;4.300;2024-02-21T05:18:38;9.90;99.90
19538;DHT22;9914;51.008;4.300;2024-02-21T05:21:05;10.00;99.90
19538;DHT22;9914;51.008;4.300;2024-02-21T05:23:30;9.90;99.90
19538;DHT22;9914;51.008;4.300;2024-02-21T05:25:56;9.90;99.90
19538;DHT22;9914;51.008;4.300;2024-02-21T05:28:22;9.90;99.90
19538;DHT22;9914;51.008;4.300;2024-02-21T05:30:47;9.80;99.90
19538;DHT22;9914;51.008;4.300;2024-02-21T05:33:13;9.80;99.90
19538;DHT22;9914;51.008;4.300;2024-02-21T05:35:46;9.80;99.90
19538;DHT22;9914;51.008;4.300;2024-02-21T05:38:12;9.70;99.90
19538;DHT22;9914;51.008;4.300;2024-02-21T05:40:38;9.70;99.90
19538;DHT22;9914;51.008;4.300;2024-02-21T05:43:04;9.70;99.90
19538;DHT22;9914;51.008;4.300;2024-02-21T05:45:29;9.70;99.90
19538;DHT22;9914;51.008;4.300;2024-02-21T05:47:55;9.70;99.90
19538;DHT22;9914;51.008;4.300;2024-02-21T05:50:22;9.60;99.90
19538;DHT22;9914;51.008;4.300;2024-02-21T05:52:52;9.60;99.90
19538;DHT22;9914;51.008;4.300;2024-02-21T05:55:18;9.70;99.90
19538;DHT22;9914;51.008;4.300;2024-02-21T05:57:43;9.80;99.90
19538;DHT22;9914;51.008;4.300;2024-02-21T06:00:09;9.70;99.90
19538;DHT22;9914;51.008;4.300;2024-02-21T06:02:35;9.80;99.90
19538;DHT22;9914;51.008;4.300;2024-02-21T06:05:00;9.90;99.90
19538;DHT22;9914;51.008;4.300;2024-02-21T06:07:26;9.90;99.90
19538;DHT22;9914;51.008;4.300;2024-02-21T06:09:53;9.90;99.90
19538;DHT22;9914;51.008;4.300;2024-02-21T06:12:19;10.00;99.90
19538;DHT22;9914;51.008;4.300;2024-02-21T06:14:45;10.00;99.90
19538;DHT22;9914;51.008;4.300;2024-02-21T06:17:10;10.00;99.90
19538;DHT22;9914;51.008;4.300;2024-02-21T06:19:40;10.00;99.90
19538;DHT22;9914;51.008;4.300;2024-02-21T06:22:06;10.00;99.90
19538;DHT22;9914;51.008;4.300;2024-02-21T06:24:34;9.90;99.90
19538;DHT22;9914;51.008;4.300;2024-02-21T06:27:00;9.90;99.90
19538;DHT22;9914;51.008;4.300;2024-02-21T06:29:25;9.90;99.90
19538;DHT22;9914;51.008;4.300;2024-02-21T06:31:51;9.90;99.90
19538;DHT22;9914;51.008;4.300;2024-02-21T06:34:16;9.80;99.90
19538;DHT22;9914;51.008;4.300;2024-02-21T06:36:42;9.90;99.90
19538;DHT22;9914;51.008;4.300;2024-02-21T06:39:08;9.90;99.90
19538;DHT22;9914;51.008;4.300;2024-02-21T06:41:35;9.90;99.90
19538;DHT22;9914;51.008;4.300;2024-02-21T06:44:00;10.00;99.90
19538;DHT22;9914;51.008;4.300;2024-02-21T06:46:28;10.00;99.90
19538;DHT22;9914;51.008;4.300;2024-02-21T06:48:59;10.00;99.90
19538;DHT22;9914;51.008;4.300;2024-02-21T06:51:32;10.00;99.90
19538;DHT22;9914;51.008;4.300;2024-02-21T06:53:58;10.00;99.90
19538;DHT22;9914;51.008;4.300;2024-02-21T06:56:24;10.00;99.90
19538;DHT22;9914;51.008;4.300;2024-02-21T06:58:54;10.10;99.90
19538;DHT22;9914;51.008;4.300;2024-02-21T07:01:20;10.20;99.90
19538;DHT22;9914;51.008;4.300;2024-02-21T07:03:46;10.20;99.90
19538;DHT22;9914;51.008;4.300;2024-02-21T07:06:12;10.10;99.90
19538;DHT22;9914;51.008;4.300;2024-02-21T07:08:38;10.10;99.90
19538;DHT22;9914;51.008;4.300;2024-02-21T07:11:04;10.10;99.90
19538;DHT22;9914;51.008;4.300;2024-02-21T07:13:32;10.10;99.90
19538;DHT22;9914;51.008;4.300;2024-02-21T07:15:58;10.10;99.90
19538;DHT22;9914;51.008;4.300;2024-02-21T07:18:23;10.20;99.90
19538;DHT22;9914;51.008;4.300;2024-02-21T07:20:51;10.10;99.90
19538;DHT22;9914;51.008;4.300;2024-02-21T07:23:17;10.20;99.90
19538;DHT22;9914;51.008;4.300;2024-02-21T07:25:42;10.20;99.90
19538;DHT22;9914;51.008;4.300;2024-02-21T07:28:08;10.20;99.90
19538;DHT22;9914;51.008;4.300;2024-02-21T07:30:35;10.30;99.90
19538;DHT22;9914;51.008;4.300;2024-02-21T07:33:01;10.20;99.90
19538;DHT22;9914;51.008;4.300;2024-02-21T07:35:26;10.20;99.90
19538;DHT22;9914;51.008;4.300;2024-02-21T07:37:52;10.30;99.90
19538;DHT22;9914;51.008;4.300;2024-02-21T07:40:18;10.20;99.90
19538;DHT22;9914;51.008;4.300;2024-02-21T07:42:44;10.30;99.90
19538;DHT22;9914;51.008;4.300;2024-02-21T07:45:10;10.30;99.90
19538;DHT22;9914;51.008;4.300;2024-02-21T07:47:36;10.40;99.90
19538;DHT22;9914;51.008;4.300;2024-02-21T07:50:03;10.40;99.90
19538;DHT22;9914;51.008;4.300;2024-02-21T07:52:28;10.40;99.90
19538;DHT22;9914;51.008;4.300;2024-02-21T07:54:54;10.40;99.90
19538;DHT22;9914;51.008;4.300;2024-02-21T07:57:20;10.40;99.90
19538;DHT22;9914;51.008;4.300;2024-02-21T07:59:45;10.30;99.90
19538;DHT22;9914;51.008;4.300;2024-02-21T08:02:14;10.20;99.90
19538;DHT22;9914;51.008;4.300;2024-02-21T08:04:39;10.20;99.90
19538;DHT22;9914;51.008;4.300;2024-02-21T08:07:05;10.20;99.90
19538;DHT22;9914;51.008;4.300;2024-02-21T08:09:30;10.20;99.90
19538;DHT22;9914;51.008;4.300;2024-02-21T08:11:56;10.20;99.90
19538;DHT22;9914;51.008;4.300;2024-02-21T08:14:22;10.20;99.90
19538;DHT22;9914;51.008;4.300;2024-02-21T08:16:53;10.20;99.90
19538;DHT22;9914;51.008;4.300;2024-02-21T08:19:20;10.20;99.90
19538;DHT22;9914;51.008;4.300;2024-02-21T08:21:45;10.30;99.90
19538;DHT22;9914;51.008;4.300;2024-02-21T08:24:14;10.30;99.90
19538;DHT22;9914;51.008;4.300;2024-02-21T08:26:44;10.20;99.90
19538;DHT22;9914;51.008;4.300;2024-02-21T08:29:12;10.20;99.90
19538;DHT22;9914;51.008;4.300;2024-02-21T08:31:38;10.30;99.90
19538;DHT22;9914;51.008;4.300;2024-02-21T08:34:04;10.20;99.90
19538;DHT22;9914;51.008;4.300;2024-02-21T08:36:34;10.20;99.90
19538;DHT22;9914;51.008;4.300;2024-02-21T08:39:01;10.30;99.90
19538;DHT22;9914;51.008;4.300;2024-02-21T08:41:31;10.40;99.90
19538;DHT22;9914;51.008;4.300;2024-02-21T08:43:57;10.40;99.90
19538;DHT22;9914;51.008;4.300;2024-02-21T08:46:23;10.40;99.90
19538;DHT22;9914;51.008;4.300;2024-02-21T08:48:52;10.30;99.90
19538;DHT22;9914;51.008;4.300;2024-02-21T08:51:17;10.40;99.90
19538;DHT22;9914;51.008;4.300;2024-02-21T08:53:47;10.50;99.90
19538;DHT22;9914;51.008;4.300;2024-02-21T08:56:13;10.60;99.90
19538;DHT22;9914;51.008;4.300;2024-02-21T08:58:40;10.60;99.90
19538;DHT22;9914;51.008;4.300;2024-02-21T09:01:06;10.60;99.90
19538;DHT22;9914;51.008;4.300;2024-02-21T09:03:36;10.70;99.90
19538;DHT22;9914;51.008;4.300;2024-02-21T09:06:02;10.80;99.90
19538;DHT22;9914;51.008;4.300;2024-02-21T09:08:28;10.80;99.90
19538;DHT22;9914;51.008;4.300;2024-02-21T09:10:53;10.90;99.90
19538;DHT22;9914;51.008;4.300;2024-02-21T09:13:19;10.80;99.90
19538;DHT22;9914;51.008;4.300;2024-02-21T09:15:45;10.70;99.90
19538;DHT22;9914;51.008;4.300;2024-02-21T09:18:10;10.60;99.90
19538;DHT22;9914;51.008;4.300;2024-02-21T09:20:36;10.60;99.90
19538;DHT22;9914;51.008;4.300;2024-02-21T09:23:02;10.70;99.90
19538;DHT22;9914;51.008;4.300;2024-02-21T09:25:27;10.80;99.90
19538;DHT22;9914;51.008;4.300;2024-02-21T09:27:54;10.70;99.90
19538;DHT22;9914;51.008;4.300;2024-02-21T09:30:20;10.60;99.90
19538;DHT22;9914;51.008;4.300;2024-02-21T09:32:47;10.80;99.90
19538;DHT22;9914;51.008;4.300;2024-02-21T09:35:12;10.90;99.90
19538;DHT22;9914;51.008;4.300;2024-02-21T09:37:39;10.90;99.90
19538;DHT22;9914;51.008;4.300;2024-02-21T09:40:05;10.90;99.90
19538;DHT22;9914;51.008;4.300;2024-02-21T09:42:41;11.10;99.90
19538;DHT22;9914;51.008;4.300;2024-02-21T09:45:09;11.30;99.90
19538;DHT22;9914;51.008;4.300;2024-02-21T09:50:17;11.50;99.90
19538;DHT22;9914;51.008;4.300;2024-02-21T09:52:44;11.30;99.90
19538;DHT22;9914;51.008;4.300;2024-02-21T09:55:10;11.40;99.90
19538;DHT22;9914;51.008;4.300;2024-02-21T09:57:38;11.40;99.90
19538;DHT22;9914;51.008;4.300;2024-02-21T10:00:05;11.40;99.90
19538;DHT22;9914;51.008;4.300;2024-02-21T10:02:33;11.30;99.90
19538;DHT22;9914;51.008;4.300;2024-02-21T10:04:59;11.20;99.90
19538;DHT22;9914;51.008;4.300;2024-02-21T10:07:25;11.20;99.90
19538;DHT22;9914;51.008;4.300;2024-02-21T10:10:03;11.30;99.90
19538;DHT22;9914;51.008;4.300;2024-02-21T10:12:29;11.30;99.90
19538;DHT22;9914;51.008;4.300;2024-02-21T10:15:05;11.30;99.90
19538;DHT22;9914;51.008;4.300;2024-02-21T10:17:35;11.40;99.90
19538;DHT22;9914;51.008;4.300;2024-02-21T10:20:11;11.50;99.90
19538;DHT22;9914;51.008;4.300;2024-02-21T10:22:38;11.40;99.90
19538;DHT22;9914;51.008;4.300;2024-02-21T10:25:12;11.40;99.90
19538;DHT22;9914;51.008;4.300;2024-02-21T10:27:39;11.30;99.90
19538;DHT22;9914;51.008;4.300;2024-02-21T10:30:12;11.30;99.90
19538;DHT22;9914;51.008;4.300;2024-02-21T10:32:52;11.40;99.90
19538;DHT22;9914;51.008;4.300;2024-02-21T10:35:29;11.30;99.90
19538;DHT22;9914;51.008;4.300;2024-02-21T10:37:56;11.30;99.90
19538;DHT22;9914;51.008;4.300;2024-02-21T10:40:30;11.20;99.90
19538;DHT22;9914;51.008;4.300;2024-02-21T10:43:00;11.20;99.90
19538;DHT22;9914;51.008;4.300;2024-02-21T10:45:31;11.00;99.90
19538;DHT22;9914;51.008;4.300;2024-02-21T10:50:30;11.10;99.90
19538;DHT22;9914;51.008;4.300;2024-02-21T10:54:10;11.10;99.90
19538;DHT22;9914;51.008;4.300;2024-02-21T10:58:38;11.20;99.90
19538;DHT22;9914;51.008;4.300;2024-02-21T11:01:05;11.10;99.90
19538;DHT22;9914;51.008;4.300;2024-02-21T11:03:31;11.30;99.90
19538;DHT22;9914;51.008;4.300;2024-02-21T11:05:58;11.40;99.90
19538;DHT22;9914;51.008;4.300;2024-02-21T11:08:23;11.50;99.90
19538;DHT22;9914;51.008;4.300;2024-02-21T11:10:50;11.50;99.90
19538;DHT22;9914;51.008;4.300;2024-02-21T11:13:16;11.40;99.90
19538;DHT22;9914;51.008;4.300;2024-02-21T11:15:41;11.30;99.90
19538;DHT22;9914;51.008;4.300;2024-02-21T11:18:07;11.40;99.90
19538;DHT22;9914;51.008;4.300;2024-02-21T11:20:37;11.30;99.90
19538;DHT22;9914;51.008;4.300;2024-02-21T11:23:03;11.20;99.90
19538;DHT22;9914;51.008;4.300;2024-02-21T11:25:29;11.30;99.90
19538;DHT22;9914;51.008;4.300;2024-02-21T11:28:03;11.30;99.90
19538;DHT22;9914;51.008;4.300;2024-02-21T11:30:32;11.50;99.90
19538;DHT22;9914;51.008;4.300;2024-02-21T11:33:03;11.50;99.90
19538;DHT22;9914;51.008;4.300;2024-02-21T11:35:36;11.50;99.90
19538;DHT22;9914;51.008;4.300;2024-02-21T11:38:12;11.60;99.90
19538;DHT22;9914;51.008;4.300;2024-02-21T11:40:46;11.60;99.90
19538;DHT22;9914;51.008;4.300;2024-02-21T11:43:12;11.60;99.90
19538;DHT22;9914;51.008;4.300;2024-02-21T11:45:38;11.40;99.90
19538;DHT22;9914;51.008;4.300;2024-02-21T11:48:07;11.30;99.90
19538;DHT22;9914;51.008;4.300;2024-02-21T11:50:35;11.50;99.90
19538;DHT22;9914;51.008;4.300;2024-02-21T11:53:01;11.70;99.90
19538;DHT22;9914;51.008;4.300;2024-02-21T11:55:27;11.70;99.90
19538;DHT22;9914;51.008;4.300;2024-02-21T11:57:53;11.60;99.90
19538;DHT22;9914;51.008;4.300;2024-02-21T12:00:19;11.70;99.90
19538;DHT22;9914;51.008;4.300;2024-02-21T12:02:50;11.70;99.90
19538;DHT22;9914;51.008;4.300;2024-02-21T12:05:16;11.70;99.90
19538;DHT22;9914;51.008;4.300;2024-02-21T12:07:44;11.60;99.90
19538;DHT22;9914;51.008;4.300;2024-02-21T12:10:11;11.40;99.90
19538;DHT22;9914;51.008;4.300;2024-02-21T12:12:37;11.60;99.90
19538;DHT22;9914;51.008;4.300;2024-02-21T12:15:04;11.60;99.90
19538;DHT22;9914;51.008;4.300;2024-02-21T12:17:34;11.60;99.90
19538;DHT22;9914;51.008;4.300;2024-02-21T12:20:06;11.70;99.90
19538;DHT22;9914;51.008;4.300;2024-02-21T12:22:43;11.80;99.90
19538;DHT22;9914;51.008;4.300;2024-02-21T12:25:16;11.70;99.90
19538;DHT22;9914;51.008;4.300;2024-02-21T12:27:46;11.70;99.90
19538;DHT22;9914;51.008;4.300;2024-02-21T12:30:14;11.80;99.90
19538;DHT22;9914;51.008;4.300;2024-02-21T12:32:39;11.80;99.90
19538;DHT22;9914;51.008;4.300;2024-02-21T12:35:06;11.70;99.90
19538;DHT22;9914;51.008;4.300;2024-02-21T12:37:32;11.70;99.90
19538;DHT22;9914;51.008;4.300;2024-02-21T12:39:58;11.80;99.90
19538;DHT22;9914;51.008;4.300;2024-02-21T12:42:24;11.70;99.90
19538;DHT22;9914;51.008;4.300;2024-02-21T12:44:54;11.70;99.90
19538;DHT22;9914;51.008;4.300;2024-02-21T12:47:20;11.70;99.90
19538;DHT22;9914;51.008;4.300;2024-02-21T12:49:49;11.80;99.90
19538;DHT22;9914;51.008;4.300;2024-02-21T12:52:15;11.90;99.90
19538;DHT22;9914;51.008;4.300;2024-02-21T12:54:40;11.90;99.90
19538;DHT22;9914;51.008;4.300;2024-02-21T12:57:07;12.10;99.90
19538;DHT22;9914;51.008;4.300;2024-02-21T12:59:32;12.00;99.90
19538;DHT22;9914;51.008;4.300;2024-02-21T13:01:58;12.00;99.90
19538;DHT22;9914;51.008;4.300;2024-02-21T13:04:24;12.10;99.90
19538;DHT22;9914;51.008;4.300;2024-02-21T13:06:49;12.20;99.90
19538;DHT22;9914;51.008;4.300;2024-02-21T13:09:15;12.20;99.90
19538;DHT22;9914;51.008;4.300;2024-02-21T13:11:42;12.30;99.90
19538;DHT22;9914;51.008;4.300;2024-02-21T13:14:08;12.30;99.90
19538;DHT22;9914;51.008;4.300;2024-02-21T13:16:34;12.30;99.90
19538;DHT22;9914;51.008;4.300;2024-02-21T13:19:05;12.20;99.90
19538;DHT22;9914;51.008;4.300;2024-02-21T13:21:30;12.10;99.90
19538;DHT22;9914;51.008;4.300;2024-02-21T13:23:56;12.20;99.90
19538;DHT22;9914;51.008;4.300;2024-02-21T13:26:22;12.30;99.90
19538;DHT22;9914;51.008;4.300;2024-02-21T13:28:48;12.30;99.90
19538;DHT22;9914;51.008;4.300;2024-02-21T13:31:14;12.20;99.90
19538;DHT22;9914;51.008;4.300;2024-02-21T13:33:42;12.30;99.90
19538;DHT22;9914;51.008;4.300;2024-02-21T13:36:07;12.40;99.90
19538;DHT22;9914;51.008;4.300;2024-02-21T13:38:33;12.20;99.90
19538;DHT22;9914;51.008;4.300;2024-02-21T13:40:59;12.10;99.90
19538;DHT22;9914;51.008;4.300;2024-02-21T13:43:25;11.90;99.90
19538;DHT22;9914;51.008;4.300;2024-02-21T13:46:00;11.90;99.90
19538;DHT22;9914;51.008;4.300;2024-02-21T13:48:26;11.80;99.90
19538;DHT22;9914;51.008;4.300;2024-02-21T13:50:55;11.70;99.90
19538;DHT22;9914;51.008;4.300;2024-02-21T13:53:21;11.70;99.90
19538;DHT22;9914;51.008;4.300;2024-02-21T13:55:48;11.70;99.90
19538;DHT22;9914;51.008;4.300;2024-02-21T13:58:14;11.80;99.90
19538;DHT22;9914;51.008;4.300;2024-02-21T14:00:40;11.70;99.90
19538;DHT22;9914;51.008;4.300;2024-02-21T14:03:06;11.80;99.90
19538;DHT22;9914;51.008;4.300;2024-02-21T14:05:31;11.80;99.90
19538;DHT22;9914;51.008;4.300;2024-02-21T14:07:57;11.70;99.90
19538;DHT22;9914;51.008;4.300;2024-02-21T14:10:23;11.70;99.90
19538;DHT22;9914;51.008;4.300;2024-02-21T14:12:48;11.70;99.90
19538;DHT22;9914;51.008;4.300;2024-02-21T14:15:15;11.60;99.90
19538;DHT22;9914;51.008;4.300;2024-02-21T14:17:42;11.60;99.90
19538;DHT22;9914;51.008;4.300;2024-02-21T14:20:08;11.60;99.90
19538;DHT22;9914;51.008;4.300;2024-02-21T14:22:34;11.50;99.90
19538;DHT22;9914;51.008;4.300;2024-02-21T14:25:00;11.50;99.90
19538;DHT22;9914;51.008;4.300;2024-02-21T14:27:26;11.60;99.90
19538;DHT22;9914;51.008;4.300;2024-02-21T14:29:52;11.60;99.90
19538;DHT22;9914;51.008;4.300;2024-02-21T14:32:18;11.60;99.90
19538;DHT22;9914;51.008;4.300;2024-02-21T14:34:45;11.50;99.90
19538;DHT22;9914;51.008;4.300;2024-02-21T14:37:11;11.50;99.90
19538;DHT22;9914;51.008;4.300;2024-02-21T14:39:36;11.40;99.90
19538;DHT22;9914;51.008;4.300;2024-02-21T14:42:02;11.40;99.90
19538;DHT22;9914;51.008;4.300;2024-02-21T14:44:28;11.40;99.90
19538;DHT22;9914;51.008;4.300;2024-02-21T14:46:54;11.40;99.90
19538;DHT22;9914;51.008;4.300;2024-02-21T14:49:19;11.40;99.90
19538;DHT22;9914;51.008;4.300;2024-02-21T14:51:45;11.40;99.90
19538;DHT22;9914;51.008;4.300;2024-02-21T14:54:11;11.40;99.90
19538;DHT22;9914;51.008;4.300;2024-02-21T14:56:36;11.20;99.90
19538;DHT22;9914;51.008;4.300;2024-02-21T14:59:02;11.10;99.90
19538;DHT22;9914;51.008;4.300;2024-02-21T15:01:30;11.00;99.90
19538;DHT22;9914;51.008;4.300;2024-02-21T15:04:03;11.10;99.90
19538;DHT22;9914;51.008;4.300;2024-02-21T15:06:29;11.10;99.90
19538;DHT22;9914;51.008;4.300;2024-02-21T15:08:55;11.10;99.90
19538;DHT22;9914;51.008;4.300;2024-02-21T15:11:21;11.20;99.90
19538;DHT22;9914;51.008;4.300;2024-02-21T15:13:47;11.20;99.90
19538;DHT22;9914;51.008;4.300;2024-02-21T15:16:14;11.20;99.90
19538;DHT22;9914;51.008;4.300;2024-02-21T15:18:40;11.10;99.90
19538;DHT22;9914;51.008;4.300;2024-02-21T15:21:06;11.00;99.90
19538;DHT22;9914;51.008;4.300;2024-02-21T15:23:32;10.90;99.90
19538;DHT22;9914;51.008;4.300;2024-02-21T15:26:00;10.80;99.90
19538;DHT22;9914;51.008;4.300;2024-02-21T15:28:26;10.80;99.90
19538;DHT22;9914;51.008;4.300;2024-02-21T15:30:54;10.80;99.90
19538;DHT22;9914;51.008;4.300;2024-02-21T15:33:20;10.90;99.90
19538;DHT22;9914;51.008;4.300;2024-02-21T15:35:45;10.80;99.90
19538;DHT22;9914;51.008;4.300;2024-02-21T15:38:11;10.80;99.90
19538;DHT22;9914;51.008;4.300;2024-02-21T15:40:37;10.70;99.90
19538;DHT22;9914;51.008;4.300;2024-02-21T15:43:03;10.70;99.90
19538;DHT22;9914;51.008;4.300;2024-02-21T15:45:29;10.60;99.90
19538;DHT22;9914;51.008;4.300;2024-02-21T15:47:54;10.60;99.90
19538;DHT22;9914;51.008;4.300;2024-02-21T15:50:20;10.60;99.90
19538;DHT22;9914;51.008;4.300;2024-02-21T15:52:46;10.60;99.90